sensor_id;sensor_type;location;lat;lon;timestamp;pressure;altitude;pressure_sealevel;temperature;humidity
42169;BME280;27838;43.858;25.974;2023-05-08T00:00:44;101224.88;;;17.44;40.05
42169;BME280;27838;43.858;25.974;2023-05-08T00:03:10;101232.13;;;17.34;40.33
42169;BME280;27838;43.858;25.974;2023-05-08T00:05:37;101230.47;;;17.28;40.41
42169;BME280;27838;43.858;25.974;2023-05-08T00:08:03;101237.91;;;17.08;40.58
42169;BME280;27838;43.858;25.974;2023-05-08T00:10:30;101236.34;;;16.96;41.00
42169;BME280;27838;43.858;25.974;2023-05-08T00:12:56;101234.72;;;16.89;40.87
42169;BME280;27838;43.858;25.974;2023-05-08T00:15:23;101238.44;;;16.75;40.88
42169;BME280;27838;43.858;25.974;2023-05-08T00:17:50;101233.13;;;16.78;41.16
42169;BME280;27838;43.858;25.974;2023-05-08T00:20:16;101222.38;;;16.92;41.24
42169;BME280;27838;43.858;25.974;2023-05-08T00:22:43;101213.34;;;17.06;40.58
42169;BME280;27838;43.858;25.974;2023-05-08T00:25:09;101218.41;;;17.16;40.48
42169;BME280;27838;43.858;25.974;2023-05-08T00:27:36;101227.09;;;17.22;40.01
42169;BME280;27838;43.858;25.974;2023-05-08T00:30:02;101215.63;;;17.24;39.83
42169;BME280;27838;43.858;25.974;2023-05-08T00:32:29;101214.75;;;17.24;39.94
42169;BME280;27838;43.858;25.974;2023-05-08T00:34:56;101219.19;;;17.22;39.63
42169;BME280;27838;43.858;25.974;2023-05-08T00:37:22;101217.31;;;17.28;39.49
42169;BME280;27838;43.858;25.974;2023-05-08T00:39:49;101217.16;;;17.34;39.40
42169;BME280;27838;43.858;25.974;2023-05-08T00:42:15;101221.53;;;17.37;39.36
42169;BME280;27838;43.858;25.974;2023-05-08T00:44:42;101212.91;;;17.29;39.13
42169;BME280;27838;43.858;25.974;2023-05-08T00:47:08;101218.94;;;17.34;39.29
42169;BME280;27838;43.858;25.974;2023-05-08T00:49:35;101225.84;;;17.40;39.05
42169;BME280;27838;43.858;25.974;2023-05-08T00:52:03;101223.91;;;17.49;39.31
42169;BME280;27838;43.858;25.974;2023-05-08T00:54:33;101217.88;;;17.44;38.96
42169;BME280;27838;43.858;25.974;2023-05-08T00:57:02;101215.91;;;17.52;38.88
42169;BME280;27838;43.858;25.974;2023-05-08T00:59:29;101218.25;;;17.66;39.03
42169;BME280;27838;43.858;25.974;2023-05-08T01:01:56;101220.88;;;17.68;38.48
42169;BME280;27838;43.858;25.974;2023-05-08T01:04:24;101212.34;;;17.57;38.74
42169;BME280;27838;43.858;25.974;2023-05-08T01:06:52;101202.84;;;17.48;38.69
42169;BME280;27838;43.858;25.974;2023-05-08T01:09:18;101204.41;;;17.58;38.97
42169;BME280;27838;43.858;25.974;2023-05-08T01:15:03;101198.59;;;17.42;39.05
42169;BME280;27838;43.858;25.974;2023-05-08T01:17:49;101188.03;;;17.42;39.04
42169;BME280;27838;43.858;25.974;2023-05-08T01:20:38;101200.31;;;17.43;38.95
42169;BME280;27838;43.858;25.974;2023-05-08T01:32:14;101194.66;;;17.62;39.17
42169;BME280;27838;43.858;25.974;2023-05-08T01:35:08;101181.28;;;17.69;39.00
42169;BME280;27838;43.858;25.974;2023-05-08T01:38:02;101177.63;;;17.77;38.53
42169;BME280;27838;43.858;25.974;2023-05-08T01:40:39;101167.81;;;17.83;38.29
42169;BME280;27838;43.858;25.974;2023-05-08T01:46:13;101160.28;;;17.65;38.74
42169;BME280;27838;43.858;25.974;2023-05-08T01:51:27;101159.69;;;17.53;39.16
42169;BME280;27838;43.858;25.974;2023-05-08T01:53:59;101159.75;;;17.50;39.11
42169;BME280;27838;43.858;25.974;2023-05-08T01:56:30;101171.81;;;17.61;39.14
42169;BME280;27838;43.858;25.974;2023-05-08T01:58:58;101164.69;;;17.66;39.02
42169;BME280;27838;43.858;25.974;2023-05-08T02:01:27;101171.53;;;17.73;38.80
42169;BME280;27838;43.858;25.974;2023-05-08T02:03:56;101178.34;;;17.83;38.81
42169;BME280;27838;43.858;25.974;2023-05-08T02:06:24;101183.44;;;17.92;38.85
42169;BME280;27838;43.858;25.974;2023-05-08T02:08:53;101169.41;;;17.90;38.53
42169;BME280;27838;43.858;25.974;2023-05-08T02:11:22;101184.19;;;17.98;38.55
42169;BME280;27838;43.858;25.974;2023-05-08T02:13:50;101175.50;;;17.94;38.21
42169;BME280;27838;43.858;25.974;2023-05-08T02:16:17;101174.75;;;17.87;38.58
42169;BME280;27838;43.858;25.974;2023-05-08T02:18:49;101196.59;;;17.94;38.78
42169;BME280;27838;43.858;25.974;2023-05-08T02:21:17;101193.97;;;17.92;38.94
42169;BME280;27838;43.858;25.974;2023-05-08T02:23:46;101206.97;;;18.02;38.62
42169;BME280;27838;43.858;25.974;2023-05-08T02:26:14;101208.66;;;18.04;38.43
42169;BME280;27838;43.858;25.974;2023-05-08T02:28:41;101213.31;;;17.95;38.02
42169;BME280;27838;43.858;25.974;2023-05-08T02:31:10;101221.31;;;17.90;38.06
42169;BME280;27838;43.858;25.974;2023-05-08T02:33:39;101218.72;;;17.85;37.89
42169;BME280;27838;43.858;25.974;2023-05-08T02:36:07;101234.47;;;17.91;37.78
42169;BME280;27838;43.858;25.974;2023-05-08T02:38:36;101230.00;;;17.93;37.99
42169;BME280;27838;43.858;25.974;2023-05-08T02:41:05;101230.84;;;17.96;38.03
42169;BME280;27838;43.858;25.974;2023-05-08T02:43:34;101230.03;;;17.92;38.31
42169;BME280;27838;43.858;25.974;2023-05-08T02:46:15;101230.91;;;17.92;38.53
42169;BME280;27838;43.858;25.974;2023-05-08T02:48:50;101228.25;;;17.92;38.04
42169;BME280;27838;43.858;25.974;2023-05-08T02:53:57;101237.03;;;17.95;38.09
42169;BME280;27838;43.858;25.974;2023-05-08T02:56:36;101233.63;;;17.89;37.85
42169;BME280;27838;43.858;25.974;2023-05-08T02:59:09;101239.81;;;17.85;38.21
42169;BME280;27838;43.858;25.974;2023-05-08T03:01:49;101236.31;;;17.86;37.90
42169;BME280;27838;43.858;25.974;2023-05-08T03:04:28;101236.28;;;17.89;37.67
42169;BME280;27838;43.858;25.974;2023-05-08T03:06:57;101234.50;;;17.90;37.51
42169;BME280;27838;43.858;25.974;2023-05-08T03:09:27;101232.78;;;17.87;37.83
42169;BME280;27838;43.858;25.974;2023-05-08T03:12:01;101235.50;;;17.83;38.34
42169;BME280;27838;43.858;25.974;2023-05-08T03:14:31;101239.97;;;17.79;38.58
42169;BME280;27838;43.858;25.974;2023-05-08T03:17:05;101249.59;;;17.80;38.81
42169;BME280;27838;43.858;25.974;2023-05-08T03:19:36;101247.84;;;17.81;38.72
42169;BME280;27838;43.858;25.974;2023-05-08T03:22:06;101250.38;;;17.85;39.55
42169;BME280;27838;43.858;25.974;2023-05-08T03:24:34;101244.31;;;17.80;39.49
42169;BME280;27838;43.858;25.974;2023-05-08T03:27:02;101249.63;;;17.79;40.31
42169;BME280;27838;43.858;25.974;2023-05-08T03:29:31;101247.09;;;17.76;40.84
42169;BME280;27838;43.858;25.974;2023-05-08T03:32:00;101242.84;;;17.68;40.98
42169;BME280;27838;43.858;25.974;2023-05-08T03:34:28;101253.28;;;17.73;41.09
42169;BME280;27838;43.858;25.974;2023-05-08T03:36:55;101261.13;;;17.76;41.39
42169;BME280;27838;43.858;25.974;2023-05-08T03:39:23;101262.88;;;17.77;41.62
42169;BME280;27838;43.858;25.974;2023-05-08T03:41:50;101264.72;;;17.72;42.17
42169;BME280;27838;43.858;25.974;2023-05-08T03:44:17;101269.09;;;17.73;42.55
42169;BME280;27838;43.858;25.974;2023-05-08T03:46:46;101264.84;;;17.66;42.29
42169;BME280;27838;43.858;25.974;2023-05-08T03:49:13;101278.84;;;17.68;42.08
42169;BME280;27838;43.858;25.974;2023-05-08T03:51:41;101269.28;;;17.64;41.56
42169;BME280;27838;43.858;25.974;2023-05-08T03:54:08;101271.22;;;17.55;41.52
42169;BME280;27838;43.858;25.974;2023-05-08T03:56:35;101280.13;;;17.48;41.23
42169;BME280;27838;43.858;25.974;2023-05-08T03:59:13;101270.59;;;17.43;41.22
42169;BME280;27838;43.858;25.974;2023-05-08T04:04:39;101279.31;;;17.46;40.99
42169;BME280;27838;43.858;25.974;2023-05-08T04:07:30;101283.69;;;17.47;40.87
42169;BME280;27838;43.858;25.974;2023-05-08T04:15:27;101296.16;;;17.38;41.38
42169;BME280;27838;43.858;25.974;2023-05-08T04:17:58;101295.41;;;17.31;41.77
42169;BME280;27838;43.858;25.974;2023-05-08T04:20:26;101297.16;;;17.32;41.82
42169;BME280;27838;43.858;25.974;2023-05-08T04:22:56;101296.34;;;17.28;42.11
42169;BME280;27838;43.858;25.974;2023-05-08T04:25:24;101292.78;;;17.29;42.33
42169;BME280;27838;43.858;25.974;2023-05-08T04:27:51;101295.47;;;17.28;42.53
42169;BME280;27838;43.858;25.974;2023-05-08T04:30:19;101299.00;;;17.27;42.70
42169;BME280;27838;43.858;25.974;2023-05-08T04:32:46;101294.59;;;17.27;43.05
42169;BME280;27838;43.858;25.974;2023-05-08T04:35:13;101291.97;;;17.27;43.15
42169;BME280;27838;43.858;25.974;2023-05-08T04:37:41;101287.50;;;17.31;42.90
42169;BME280;27838;43.858;25.974;2023-05-08T04:40:08;101285.81;;;17.28;42.35
42169;BME280;27838;43.858;25.974;2023-05-08T04:42:35;101290.16;;;17.29;42.50
42169;BME280;27838;43.858;25.974;2023-05-08T04:45:04;101272.72;;;17.24;42.61
42169;BME280;27838;43.858;25.974;2023-05-08T04:47:31;101289.03;;;17.43;42.29
42169;BME280;27838;43.858;25.974;2023-05-08T04:49:57;101288.00;;;17.51;42.37
42169;BME280;27838;43.858;25.974;2023-05-08T04:52:24;101283.56;;;17.53;42.44
42169;BME280;27838;43.858;25.974;2023-05-08T04:54:50;101293.09;;;17.59;42.84
42169;BME280;27838;43.858;25.974;2023-05-08T04:57:17;101284.34;;;17.57;42.85
42169;BME280;27838;43.858;25.974;2023-05-08T04:59:43;101278.31;;;17.52;43.30
42169;BME280;27838;43.858;25.974;2023-05-08T05:02:10;101288.81;;;17.53;43.38
42169;BME280;27838;43.858;25.974;2023-05-08T05:04:37;101283.56;;;17.53;43.76
42169;BME280;27838;43.858;25.974;2023-05-08T05:07:04;101280.03;;;17.54;43.89
42169;BME280;27838;43.858;25.974;2023-05-08T05:09:30;101293.00;;;17.64;44.03
42169;BME280;27838;43.858;25.974;2023-05-08T05:12:01;101291.16;;;17.69;43.81
42169;BME280;27838;43.858;25.974;2023-05-08T05:14:28;101294.63;;;17.71;43.70
42169;BME280;27838;43.858;25.974;2023-05-08T05:16:55;101291.09;;;17.72;43.51
42169;BME280;27838;43.858;25.974;2023-05-08T05:19:21;101280.59;;;17.69;43.54
42169;BME280;27838;43.858;25.974;2023-05-08T05:21:48;101290.91;;;17.81;43.27
42169;BME280;27838;43.858;25.974;2023-05-08T05:24:14;101286.41;;;17.88;43.26
42169;BME280;27838;43.858;25.974;2023-05-08T05:26:41;101274.16;;;17.82;43.41
42169;BME280;27838;43.858;25.974;2023-05-08T05:29:07;101270.59;;;17.86;43.12
42169;BME280;27838;43.858;25.974;2023-05-08T05:31:34;101267.91;;;17.89;42.94
42169;BME280;27838;43.858;25.974;2023-05-08T05:34:01;101262.63;;;17.89;43.12
42169;BME280;27838;43.858;25.974;2023-05-08T05:36:28;101260.81;;;17.93;42.73
42169;BME280;27838;43.858;25.974;2023-05-08T05:38:54;101272.00;;;18.03;42.81
42169;BME280;27838;43.858;25.974;2023-05-08T05:41:21;101270.94;;;18.10;42.82
42169;BME280;27838;43.858;25.974;2023-05-08T05:43:48;101272.63;;;18.14;42.80
42169;BME280;27838;43.858;25.974;2023-05-08T05:46:15;101269.00;;;18.18;42.69
42169;BME280;27838;43.858;25.974;2023-05-08T05:48:42;101277.81;;;18.17;41.32
42169;BME280;27838;43.858;25.974;2023-05-08T05:51:08;101281.22;;;18.22;41.01
42169;BME280;27838;43.858;25.974;2023-05-08T05:53:35;101273.41;;;18.19;40.48
42169;BME280;27838;43.858;25.974;2023-05-08T05:56:02;101263.66;;;18.23;40.15
42169;BME280;27838;43.858;25.974;2023-05-08T05:58:28;101258.41;;;18.21;40.08
42169;BME280;27838;43.858;25.974;2023-05-08T06:00:57;101269.97;;;18.16;40.12
42169;BME280;27838;43.858;25.974;2023-05-08T06:03:25;101257.72;;;18.11;39.96
42169;BME280;27838;43.858;25.974;2023-05-08T06:05:51;101267.44;;;18.11;40.06
42169;BME280;27838;43.858;25.974;2023-05-08T06:08:18;101264.59;;;18.19;40.22
42169;BME280;27838;43.858;25.974;2023-05-08T06:10:44;101265.34;;;18.24;40.01
42169;BME280;27838;43.858;25.974;2023-05-08T06:13:11;101266.91;;;18.33;40.08
42169;BME280;27838;43.858;25.974;2023-05-08T06:15:37;101254.31;;;18.45;40.04
42169;BME280;27838;43.858;25.974;2023-05-08T06:18:04;101252.13;;;18.63;40.06
42169;BME280;27838;43.858;25.974;2023-05-08T06:20:31;101249.97;;;18.79;39.98
42169;BME280;27838;43.858;25.974;2023-05-08T06:22:57;101245.34;;;18.87;39.18
42169;BME280;27838;43.858;25.974;2023-05-08T06:25:24;101249.59;;;18.94;39.20
42169;BME280;27838;43.858;25.974;2023-05-08T06:27:52;101249.41;;;19.00;39.34
42169;BME280;27838;43.858;25.974;2023-05-08T06:30:18;101249.25;;;19.07;39.68
42169;BME280;27838;43.858;25.974;2023-05-08T06:32:45;101243.88;;;19.10;39.43
42169;BME280;27838;43.858;25.974;2023-05-08T06:35:12;101248.25;;;19.11;39.61
42169;BME280;27838;43.858;25.974;2023-05-08T06:37:42;101256.03;;;19.17;39.52
42169;BME280;27838;43.858;25.974;2023-05-08T06:40:10;101249.81;;;19.18;39.74
42169;BME280;27838;43.858;25.974;2023-05-08T06:42:37;101253.16;;;19.24;39.78
42169;BME280;27838;43.858;25.974;2023-05-08T06:45:03;101238.13;;;19.27;39.77
42169;BME280;27838;43.858;25.974;2023-05-08T06:47:30;101237.19;;;19.29;39.74
42169;BME280;27838;43.858;25.974;2023-05-08T06:49:57;101233.44;;;19.38;39.42
42169;BME280;27838;43.858;25.974;2023-05-08T06:52:23;101229.41;;;19.54;39.36
42169;BME280;27838;43.858;25.974;2023-05-08T06:54:50;101235.47;;;19.58;39.24
42169;BME280;27838;43.858;25.974;2023-05-08T06:57:17;101228.28;;;19.63;39.43
42169;BME280;27838;43.858;25.974;2023-05-08T06:59:43;101241.22;;;19.74;38.63
42169;BME280;27838;43.858;25.974;2023-05-08T07:02:10;101235.16;;;19.69;38.49
42169;BME280;27838;43.858;25.974;2023-05-08T07:04:36;101243.81;;;19.75;38.61
42169;BME280;27838;43.858;25.974;2023-05-08T07:07:03;101236.47;;;19.85;39.07
42169;BME280;27838;43.858;25.974;2023-05-08T07:09:31;101239.69;;;19.95;39.82
42169;BME280;27838;43.858;25.974;2023-05-08T07:11:57;101235.03;;;20.03;38.52
42169;BME280;27838;43.858;25.974;2023-05-08T07:14:24;101239.22;;;20.10;38.04
42169;BME280;27838;43.858;25.974;2023-05-08T07:16:51;101242.72;;;20.11;37.81
42169;BME280;27838;43.858;25.974;2023-05-08T07:19:17;101246.84;;;20.19;37.49
42169;BME280;27838;43.858;25.974;2023-05-08T07:21:44;101246.63;;;20.27;37.45
42169;BME280;27838;43.858;25.974;2023-05-08T07:24:11;101249.94;;;20.34;36.77
42169;BME280;27838;43.858;25.974;2023-05-08T07:26:38;101252.34;;;20.42;37.22
42169;BME280;27838;43.858;25.974;2023-05-08T07:29:04;101247.72;;;20.48;37.05
42169;BME280;27838;43.858;25.974;2023-05-08T07:31:32;101244.88;;;20.53;37.75
42169;BME280;27838;43.858;25.974;2023-05-08T07:33:58;101256.16;;;20.60;37.73
42169;BME280;27838;43.858;25.974;2023-05-08T07:36:25;101243.66;;;20.65;38.15
42169;BME280;27838;43.858;25.974;2023-05-08T07:38:51;101261.78;;;20.77;37.65
42169;BME280;27838;43.858;25.974;2023-05-08T07:41:18;101247.53;;;20.81;37.69
42169;BME280;27838;43.858;25.974;2023-05-08T07:43:44;101253.34;;;20.91;37.69
42169;BME280;27838;43.858;25.974;2023-05-08T07:46:17;101256.50;;;21.02;37.44
42169;BME280;27838;43.858;25.974;2023-05-08T07:48:44;101251.06;;;21.05;36.84
42169;BME280;27838;43.858;25.974;2023-05-08T07:51:11;101249.13;;;21.10;36.08
42169;BME280;27838;43.858;25.974;2023-05-08T07:53:37;101261.56;;;21.08;36.38
42169;BME280;27838;43.858;25.974;2023-05-08T07:56:04;101260.44;;;21.16;36.58
42169;BME280;27838;43.858;25.974;2023-05-08T07:58:31;101259.34;;;21.21;36.98
42169;BME280;27838;43.858;25.974;2023-05-08T08:00:57;101256.69;;;21.21;37.01
42169;BME280;27838;43.858;25.974;2023-05-08T08:03:24;101249.78;;;21.17;37.22
42169;BME280;27838;43.858;25.974;2023-05-08T08:05:50;101261.94;;;21.23;37.26
42169;BME280;27838;43.858;25.974;2023-05-08T08:08:17;101254.34;;;21.13;37.17
42169;BME280;27838;43.858;25.974;2023-05-08T08:10:44;101261.75;;;21.04;37.19
42169;BME280;27838;43.858;25.974;2023-05-08T08:13:11;101254.88;;;20.98;36.76
42169;BME280;27838;43.858;25.974;2023-05-08T08:15:37;101257.47;;;21.00;37.04
42169;BME280;27838;43.858;25.974;2023-05-08T08:18:04;101266.34;;;20.99;37.43
42169;BME280;27838;43.858;25.974;2023-05-08T08:20:30;101253.69;;;20.82;37.37
42169;BME280;27838;43.858;25.974;2023-05-08T08:22:57;101260.25;;;20.70;38.35
42169;BME280;27838;43.858;25.974;2023-05-08T08:25:24;101270.19;;;20.63;38.94
42169;BME280;27838;43.858;25.974;2023-05-08T08:27:51;101255.56;;;20.51;39.21
42169;BME280;27838;43.858;25.974;2023-05-08T08:30:18;101266.03;;;20.54;39.25
42169;BME280;27838;43.858;25.974;2023-05-08T08:32:45;101265.53;;;20.43;39.04
42169;BME280;27838;43.858;25.974;2023-05-08T08:35:11;101268.25;;;20.40;39.19
42169;BME280;27838;43.858;25.974;2023-05-08T08:37:38;101280.69;;;20.38;39.23
42169;BME280;27838;43.858;25.974;2023-05-08T08:40:05;101285.13;;;20.37;39.70
42169;BME280;27838;43.858;25.974;2023-05-08T08:42:32;101279.91;;;20.34;40.16
42169;BME280;27838;43.858;25.974;2023-05-08T08:44:59;101265.97;;;20.29;39.89
42169;BME280;27838;43.858;25.974;2023-05-08T08:47:35;101272.97;;;20.30;39.89
42169;BME280;27838;43.858;25.974;2023-05-08T08:50:03;101267.69;;;20.30;40.13
42169;BME280;27838;43.858;25.974;2023-05-08T08:53:06;101278.22;;;20.32;40.18
42169;BME280;27838;43.858;25.974;2023-05-08T08:55:24;101279.34;;;20.25;40.44
42169;BME280;27838;43.858;25.974;2023-05-08T08:58:23;101286.28;;;20.29;40.79
42169;BME280;27838;43.858;25.974;2023-05-08T09:00:52;101272.38;;;20.22;41.05
42169;BME280;27838;43.858;25.974;2023-05-08T09:03:20;101265.50;;;20.16;41.16
42169;BME280;27838;43.858;25.974;2023-05-08T09:05:47;101289.75;;;20.31;41.30
42169;BME280;27838;43.858;25.974;2023-05-08T09:08:14;101283.56;;;20.30;40.93
42169;BME280;27838;43.858;25.974;2023-05-08T09:10:41;101286.28;;;20.29;41.04
42169;BME280;27838;43.858;25.974;2023-05-08T09:13:07;101286.22;;;20.30;40.96
42169;BME280;27838;43.858;25.974;2023-05-08T09:15:34;101284.41;;;20.32;40.82
42169;BME280;27838;43.858;25.974;2023-05-08T09:18:00;101284.28;;;20.35;40.57
42169;BME280;27838;43.858;25.974;2023-05-08T09:20:28;101284.28;;;20.35;40.75
42169;BME280;27838;43.858;25.974;2023-05-08T09:22:56;101293.78;;;20.43;40.95
42169;BME280;27838;43.858;25.974;2023-05-08T09:25:22;101285.84;;;20.43;41.35
42169;BME280;27838;43.858;25.974;2023-05-08T09:27:49;101297.97;;;20.50;41.90
42169;BME280;27838;43.858;25.974;2023-05-08T09:30:16;101294.34;;;20.52;42.39
42169;BME280;27838;43.858;25.974;2023-05-08T09:32:43;101304.75;;;20.59;43.07
42169;BME280;27838;43.858;25.974;2023-05-08T09:35:10;101303.97;;;20.55;43.19
42169;BME280;27838;43.858;25.974;2023-05-08T09:37:38;101305.97;;;20.48;43.81
42169;BME280;27838;43.858;25.974;2023-05-08T09:42:41;101288.31;;;20.47;43.20
42169;BME280;27838;43.858;25.974;2023-05-08T09:45:08;101290.78;;;20.53;43.67
42169;BME280;27838;43.858;25.974;2023-05-08T09:47:35;101302.00;;;20.62;43.66
42169;BME280;27838;43.858;25.974;2023-05-08T09:50:07;101311.34;;;20.73;43.58
42169;BME280;27838;43.858;25.974;2023-05-08T09:52:36;101303.25;;;20.78;43.81
42169;BME280;27838;43.858;25.974;2023-05-08T09:55:07;101299.63;;;20.81;44.33
42169;BME280;27838;43.858;25.974;2023-05-08T09:57:38;101290.75;;;20.82;44.43
42169;BME280;27838;43.858;25.974;2023-05-08T10:00:08;101305.63;;;20.86;44.73
42169;BME280;27838;43.858;25.974;2023-05-08T10:02:36;101308.19;;;20.89;44.75
42169;BME280;27838;43.858;25.974;2023-05-08T10:05:04;101308.50;;;20.80;45.33
42169;BME280;27838;43.858;25.974;2023-05-08T10:07:33;101318.47;;;20.71;45.56
42169;BME280;27838;43.858;25.974;2023-05-08T10:10:04;101309.06;;;20.63;45.69
42169;BME280;27838;43.858;25.974;2023-05-08T10:12:32;101315.53;;;20.52;45.94
42169;BME280;27838;43.858;25.974;2023-05-08T10:14:59;101314.97;;;20.43;46.16
42169;BME280;27838;43.858;25.974;2023-05-08T10:17:37;101310.16;;;20.27;45.88
42169;BME280;27838;43.858;25.974;2023-05-08T10:20:07;101317.78;;;20.08;45.78
42169;BME280;27838;43.858;25.974;2023-05-08T10:22:36;101331.31;;;19.99;46.06
42169;BME280;27838;43.858;25.974;2023-05-08T10:25:06;101329.91;;;19.86;45.29
42169;BME280;27838;43.858;25.974;2023-05-08T10:30:08;101345.78;;;19.53;45.72
42169;BME280;27838;43.858;25.974;2023-05-08T10:32:42;101353.91;;;19.47;46.10
42169;BME280;27838;43.858;25.974;2023-05-08T10:35:10;101336.44;;;19.39;46.24
42169;BME280;27838;43.858;25.974;2023-05-08T10:37:38;101345.31;;;19.38;46.02
42169;BME280;27838;43.858;25.974;2023-05-08T10:40:07;101340.16;;;19.32;46.29
42169;BME280;27838;43.858;25.974;2023-05-08T10:42:35;101336.94;;;19.21;46.39
42169;BME280;27838;43.858;25.974;2023-05-08T10:45:03;101353.13;;;19.09;46.74
42169;BME280;27838;43.858;25.974;2023-05-08T10:47:47;101353.72;;;18.85;47.21
42169;BME280;27838;43.858;25.974;2023-05-08T10:50:41;101353.78;;;18.82;47.31
42169;BME280;27838;43.858;25.974;2023-05-08T10:53:39;101359.91;;;18.81;48.70
42169;BME280;27838;43.858;25.974;2023-05-08T10:56:07;101353.03;;;18.74;49.18
42169;BME280;27838;43.858;25.974;2023-05-08T10:58:37;101354.91;;;18.71;49.78
42169;BME280;27838;43.858;25.974;2023-05-08T11:03:47;101354.22;;;18.61;49.60
42169;BME280;27838;43.858;25.974;2023-05-08T11:06:15;101358.69;;;18.59;49.12
42169;BME280;27838;43.858;25.974;2023-05-08T11:08:45;101361.34;;;18.57;49.74
42169;BME280;27838;43.858;25.974;2023-05-08T11:14:09;101359.75;;;18.50;49.86
42169;BME280;27838;43.858;25.974;2023-05-08T11:17:01;101368.50;;;18.52;50.70
42169;BME280;27838;43.858;25.974;2023-05-08T11:19:28;101362.59;;;18.42;50.01
42169;BME280;27838;43.858;25.974;2023-05-08T11:22:10;101379.16;;;18.49;50.79
42169;BME280;27838;43.858;25.974;2023-05-08T11:24:38;101378.34;;;18.47;51.12
42169;BME280;27838;43.858;25.974;2023-05-08T11:27:05;101386.41;;;18.39;51.11
42169;BME280;27838;43.858;25.974;2023-05-08T11:29:32;101384.84;;;18.30;51.31
42169;BME280;27838;43.858;25.974;2023-05-08T11:32:00;101370.13;;;18.19;52.00
42169;BME280;27838;43.858;25.974;2023-05-08T11:37:09;101401.69;;;18.23;53.57
42169;BME280;27838;43.858;25.974;2023-05-08T11:39:36;101397.38;;;18.21;54.10
42169;BME280;27838;43.858;25.974;2023-05-08T11:45:12;101397.00;;;17.96;55.95
42169;BME280;27838;43.858;25.974;2023-05-08T11:47:43;101406.72;;;17.93;56.14
42169;BME280;27838;43.858;25.974;2023-05-08T11:50:11;101408.59;;;17.85;56.63
42169;BME280;27838;43.858;25.974;2023-05-08T11:52:40;101403.44;;;17.79;57.64
42169;BME280;27838;43.858;25.974;2023-05-08T11:55:09;101399.97;;;17.77;58.63
42169;BME280;27838;43.858;25.974;2023-05-08T11:57:36;101401.75;;;17.75;58.69
42169;BME280;27838;43.858;25.974;2023-05-08T12:00:07;101405.34;;;17.71;60.55
42169;BME280;27838;43.858;25.974;2023-05-08T12:02:41;101399.28;;;17.66;60.10
42169;BME280;27838;43.858;25.974;2023-05-08T12:05:10;101414.22;;;17.67;60.58
42169;BME280;27838;43.858;25.974;2023-05-08T12:07:44;101418.72;;;17.60;61.11
42169;BME280;27838;43.858;25.974;2023-05-08T12:10:11;101419.72;;;17.54;61.02
42169;BME280;27838;43.858;25.974;2023-05-08T12:12:43;101424.13;;;17.52;61.67
42169;BME280;27838;43.858;25.974;2023-05-08T12:15:13;101424.13;;;17.52;63.03
42169;BME280;27838;43.858;25.974;2023-05-08T12:17:40;101419.81;;;17.48;63.08
42169;BME280;27838;43.858;25.974;2023-05-08T12:20:20;101412.19;;;17.31;63.60
42169;BME280;27838;43.858;25.974;2023-05-08T12:22:51;101416.84;;;17.15;63.47
42169;BME280;27838;43.858;25.974;2023-05-08T12:25:18;101418.75;;;17.07;63.56
42169;BME280;27838;43.858;25.974;2023-05-08T12:27:45;101419.69;;;17.02;64.22
42169;BME280;27838;43.858;25.974;2023-05-08T12:30:13;101417.16;;;16.97;65.06
42169;BME280;27838;43.858;25.974;2023-05-08T12:32:40;101428.72;;;16.87;65.08
42169;BME280;27838;43.858;25.974;2023-05-08T12:35:08;101405.06;;;16.80;65.16
42169;BME280;27838;43.858;25.974;2023-05-08T12:37:35;101406.03;;;16.76;65.50
42169;BME280;27838;43.858;25.974;2023-05-08T12:40:03;101398.31;;;16.64;66.47
42169;BME280;27838;43.858;25.974;2023-05-08T12:42:41;101409.72;;;16.63;65.97
42169;BME280;27838;43.858;25.974;2023-05-08T12:45:08;101414.28;;;16.52;67.15
42169;BME280;27838;43.858;25.974;2023-05-08T12:47:34;101411.72;;;16.44;67.55
42169;BME280;27838;43.858;25.974;2023-05-08T12:50:02;101406.53;;;16.41;67.83
42169;BME280;27838;43.858;25.974;2023-05-08T12:52:29;101412.78;;;16.31;68.25
42169;BME280;27838;43.858;25.974;2023-05-08T12:54:55;101404.13;;;16.22;68.49
42169;BME280;27838;43.858;25.974;2023-05-08T12:57:22;101419.09;;;16.16;68.88
42169;BME280;27838;43.858;25.974;2023-05-08T12:59:48;101412.97;;;16.15;69.01
42169;BME280;27838;43.858;25.974;2023-05-08T13:02:20;101416.66;;;16.00;69.61
42169;BME280;27838;43.858;25.974;2023-05-08T13:04:52;101419.34;;;15.97;69.93
42169;BME280;27838;43.858;25.974;2023-05-08T13:07:20;101407.16;;;15.89;69.92
42169;BME280;27838;43.858;25.974;2023-05-08T13:10:00;101418.53;;;15.89;70.80
42169;BME280;27838;43.858;25.974;2023-05-08T13:12:29;101415.06;;;15.87;71.18
42169;BME280;27838;43.858;25.974;2023-05-08T13:14:56;101414.97;;;15.93;71.34
42169;BME280;27838;43.858;25.974;2023-05-08T13:17:22;101414.97;;;15.93;71.29
42169;BME280;27838;43.858;25.974;2023-05-08T13:19:49;101415.81;;;15.97;71.05
42169;BME280;27838;43.858;25.974;2023-05-08T13:22:15;101415.88;;;15.92;71.00
42169;BME280;27838;43.858;25.974;2023-05-08T13:24:42;101402.63;;;16.00;71.35
42169;BME280;27838;43.858;25.974;2023-05-08T13:27:08;101401.03;;;15.86;71.75
42169;BME280;27838;43.858;25.974;2023-05-08T13:29:35;101411.50;;;15.90;72.07
42169;BME280;27838;43.858;25.974;2023-05-08T13:32:01;101395.84;;;15.82;71.76
42169;BME280;27838;43.858;25.974;2023-05-08T13:34:28;101405.44;;;15.84;71.76